Grand Coulee, Canada
Current Conditions -  °F | °C
As of 9:37 PM on Thursday 18 Dec 2014 (Local Time) from CYQR Reporting Station
Haze Haze  
Wind Chill: 18°   Ceiling: 100
Heat Index: 25°   Visibility: 1.5mi
Dew Point: 25°   Wind: 6mph
Humidity: 100%   Direction: 200°SSW
Pressure: 29.9"   Gusts: NA
Location:  50.43°N, 104.82°W
Report Text: CYQR 190337Z 20005KT 1 1/2SM BR OVC001 M04/M04 A2990 RMK SF8 SLP161
Loading
Personal Weather Stations






























Interactive Weather Map New forecast layout! Learn more

10-Day Weather Forecast

Advertisements
Track Severe Weather on mobile